Time;durP1;ratioP1;P1;durP2;ratioP2;P2;SDS_P1;SDS_P2;PMS_P1;PMS_P2;Temp;Humidity;BMP_temperature;BMP_pressure;BME280_temperature;BME280_humidity;BME280_pressure;Samples;Min_cycle;Max_cycle;Signal;HPM_P1;HPM_P2
2021/08/25 00:01:26;;;;;;;2.90;2.70;;;;;;;18.18;58.01;98385.94;6242997;23;20027;-65
2021/08/25 00:03:52;;;;;;;5.72;3.17;;;;;;;18.17;58.21;98381.50;6244430;23;20007;-68
2021/08/25 00:06:17;;;;;;;3.00;2.45;;;;;;;18.15;58.36;98381.00;6244649;23;20015;-65
2021/08/25 00:08:43;;;;;;;3.10;1.83;;;;;;;18.14;58.29;98382.09;6244824;23;20012;-65
2021/08/25 00:11:09;;;;;;;19.63;4.03;;;;;;;18.11;58.27;98366.03;6244682;23;20437;-66
2021/08/25 00:13:34;;;;;;;0.82;0.82;;;;;;;18.04;58.71;98374.69;6244683;23;20008;-66
2021/08/25 00:16:00;;;;;;;4.05;1.98;;;;;;;18.00;58.58;98370.03;6244620;23;20012;-65
2021/08/25 00:18:26;;;;;;;1.10;1.10;;;;;;;17.97;58.88;98371.44;6245106;23;20008;-65
2021/08/25 00:20:52;;;;;;;3.80;2.25;;;;;;;17.91;59.19;98369.03;6244926;23;20015;-64
2021/08/25 00:23:17;;;;;;;0.98;0.90;;;;;;;17.83;59.25;98376.84;6244902;23;20019;-65
2021/08/25 00:25:43;;;;;;;1.20;0.88;;;;;;;17.75;59.77;98371.91;6244689;23;20364;-66
2021/08/25 00:28:09;;;;;;;2.35;1.35;;;;;;;17.72;59.84;98369.72;6245644;23;20429;-64
2021/08/25 00:30:35;;;;;;;0.82;0.70;;;;;;;17.69;59.87;98375.88;6247393;23;20003;-64
2021/08/25 00:33:01;;;;;;;1.58;1.20;;;;;;;17.64;59.94;98379.53;6246306;23;20105;-61
2021/08/25 00:35:26;;;;;;;0.85;0.75;;;;;;;17.61;60.17;98373.75;6246725;23;20012;-65
2021/08/25 00:37:52;;;;;;;2.17;1.52;;;;;;;17.60;60.13;98369.31;6246683;22;20008;-65
2021/08/25 00:40:18;;;;;;;0.85;0.85;;;;;;;17.57;60.35;98369.88;6247139;23;20016;-65
2021/08/25 00:42:44;;;;;;;0.60;0.60;;;;;;;17.52;60.26;98365.22;6246672;23;20015;-65
2021/08/25 00:45:10;;;;;;;1.40;1.30;;;;;;;17.47;60.65;98368.84;6246623;23;20019;-64
2021/08/25 00:47:42;;;;;;;0.55;0.55;;;;;;;17.46;60.80;98360.81;6246762;23;20008;-65
2021/08/25 00:50:14;;;;;;;0.60;0.50;;;;;;;17.43;60.67;98353.91;6246954;23;20083;-65
2021/08/25 00:52:41;;;;;;;0.43;0.43;;;;;;;17.39;60.89;98355.59;6246548;23;20334;-64
2021/08/25 00:55:12;;;;;;;1.67;0.68;;;;;;;17.37;60.96;98335.63;6246541;23;20008;-62
2021/08/25 00:57:38;;;;;;;0.85;0.60;;;;;;;17.36;61.04;98350.66;6246587;23;20012;-64
2021/08/25 01:00:09;;;;;;;0.57;0.57;;;;;;;17.32;61.07;98342.06;6247023;23;20441;-63
2021/08/25 01:02:45;;;;;;;0.75;0.75;;;;;;;17.30;61.23;98340.72;6246459;23;20020;-63
2021/08/25 01:05:12;;;;;;;1.02;0.85;;;;;;;17.29;61.21;98333.50;6246318;23;20348;-63
2021/08/25 01:07:39;;;;;;;0.45;0.45;;;;;;;17.30;61.15;98337.94;6219825;23;20012;-63
2021/08/25 01:10:24;;;;;;;0.82;0.82;;;;;;;17.38;61.07;98345.63;6246307;23;20091;-63
2021/08/25 01:12:50;;;;;;;0.50;0.50;;;;;;;17.44;60.93;98346.41;6246241;23;20023;-64
2021/08/25 01:15:16;;;;;;;1.27;1.17;;;;;;;17.52;60.83;98354.94;6246581;23;20012;-63
2021/08/25 01:17:44;;;;;;;1.08;0.80;;;;;;;17.61;60.77;98346.81;6246196;23;20012;-64
2021/08/25 01:20:12;;;;;;;1.17;0.65;;;;;;;17.72;60.62;98350.28;6246323;23;20059;-63
2021/08/25 01:22:40;;;;;;;4.80;1.10;;;;;;;17.79;60.57;98345.22;6246275;23;20344;-64
2021/08/25 01:25:10;;;;;;;1.15;1.05;;;;;;;17.85;60.36;98346.81;6246289;23;20008;-64
2021/08/25 01:27:41;;;;;;;0.60;0.60;;;;;;;17.91;60.20;98336.50;6246318;23;20436;-62
2021/08/25 01:30:08;;;;;;;0.57;0.55;;;;;;;17.95;60.24;98336.78;6246650;23;20453;-64
2021/08/25 01:32:35;;;;;;;0.43;0.40;;;;;;;18.00;60.22;98325.59;6246375;23;20019;-64
2021/08/25 01:35:01;;;;;;;0.40;0.40;;;;;;;18.04;60.13;98327.47;6245387;23;20012;-64
2021/08/25 01:37:27;;;;;;;0.30;0.30;;;;;;;18.15;60.10;98328.19;6218834;23;20063;-64
2021/08/25 01:39:55;;;;;;;0.88;0.73;;;;;;;18.28;59.81;98323.03;6246062;23;20015;-64
2021/08/25 01:42:21;;;;;;;0.60;0.52;;;;;;;18.39;59.66;98327.34;6246017;23;20008;-65
2021/08/25 01:44:50;;;;;;;0.47;0.47;;;;;;;18.54;59.33;98320.75;6246001;23;20008;-65
2021/08/25 01:47:19;;;;;;;2.47;0.75;;;;;;;18.76;58.90;98328.50;6246574;23;20016;-68
2021/08/25 01:49:49;;;;;;;0.20;0.20;;;;;;;19.37;57.66;98334.22;6246414;23;20047;-64
2021/08/25 01:52:16;;;;;;;1.55;1.45;;;;;;;20.27;55.57;98334.81;6245562;23;20019;-64
2021/08/25 01:54:44;;;;;;;0.50;0.50;;;;;;;21.09;54.06;98332.16;6245939;23;20082;-64
2021/08/25 01:57:09;;;;;;;2.05;0.75;;;;;;;21.68;52.87;98334.88;6246069;23;20043;-65
2021/08/25 01:59:36;;;;;;;0.68;0.68;;;;;;;22.03;52.17;98340.66;6246433;23;20004;-64
2021/08/25 02:02:02;;;;;;;0.65;0.52;;;;;;;21.95;52.88;98346.19;6245598;23;20078;-64
2021/08/25 02:04:27;;;;;;;0.30;0.30;;;;;;;21.84;53.22;98346.47;6245217;23;20008;-64
2021/08/25 02:06:56;;;;;;;0.40;0.40;;;;;;;22.11;53.10;98341.81;6245960;23;20086;-64
2021/08/25 02:09:22;;;;;;;0.90;0.70;;;;;;;22.47;52.42;98334.44;6245443;23;20094;-63
2021/08/25 02:11:49;;;;;;;0.22;0.22;;;;;;;22.48;52.31;98336.06;6245865;23;20020;-64
2021/08/25 02:14:15;;;;;;;1.08;0.98;;;;;;;22.87;51.98;98331.50;6246013;23;20349;-64
2021/08/25 02:16:41;;;;;;;1.55;0.85;;;;;;;23.24;51.30;98329.22;6218733;23;20311;-63
2021/08/25 02:19:07;;;;;;;0.32;0.32;;;;;;;23.19;51.24;98329.38;6245572;23;20022;-63
2021/08/25 02:21:33;;;;;;;0.35;0.35;;;;;;;23.14;51.64;98329.56;6245715;23;20437;-63
2021/08/25 02:23:59;;;;;;;1.42;1.08;;;;;;;22.73;52.79;98326.06;6218544;23;20008;-64
2021/08/25 02:26:24;;;;;;;1.20;0.98;;;;;;;22.77;52.92;98329.03;6245324;23;20012;-65
2021/08/25 02:28:52;;;;;;;0.52;0.52;;;;;;;23.19;51.69;98321.84;6245618;23;20007;-65
2021/08/25 02:31:19;;;;;;;0.90;0.80;;;;;;;23.98;50.40;98323.66;6246007;23;20344;-65
2021/08/25 02:33:45;;;;;;;0.40;0.40;;;;;;;24.73;48.66;98329.53;6244475;23;20008;-65
2021/08/25 02:36:11;;;;;;;0.52;0.52;;;;;;;25.43;47.80;98325.38;6245327;23;20019;-64
2021/08/25 02:38:38;;;;;;;0.75;0.75;;;;;;;25.34;47.95;98311.41;6245328;23;20042;-65
2021/08/25 02:41:06;;;;;;;0.38;0.38;;;;;;;25.07;48.56;98310.78;6245487;23;20019;-65
2021/08/25 02:43:32;;;;;;;0.20;0.20;;;;;;;25.04;48.85;98319.91;6245189;23;20087;-64
2021/08/25 02:45:58;;;;;;;0.30;0.30;;;;;;;24.75;49.94;98324.44;6245526;23;20070;-65
2021/08/25 02:48:24;;;;;;;2.50;1.10;;;;;;;24.43;50.31;98328.72;6245301;23;20396;-65
2021/08/25 02:50:49;;;;;;;0.63;0.45;;;;;;;24.41;50.36;98323.44;6245100;23;20019;-64
2021/08/25 02:53:17;;;;;;;1.02;0.93;;;;;;;25.38;48.64;98323.59;6243763;23;20027;-64
2021/08/25 02:55:46;;;;;;;0.75;0.75;;;;;;;26.56;46.23;98331.66;6245196;23;20019;-65
2021/08/25 02:58:12;;;;;;;2.08;0.88;;;;;;;26.19;46.84;98340.09;6245282;23;20019;-64
2021/08/25 03:00:38;;;;;;;7.70;0.82;;;;;;;25.36;48.50;98339.97;6245192;23;20018;-65
2021/08/25 03:03:04;;;;;;;4.40;1.98;;;;;;;24.39;50.61;98348.22;6244793;23;20513;-64
2021/08/25 03:05:30;;;;;;;7.75;2.33;;;;;;;23.43;52.92;98348.50;6245181;23;20018;-65
2021/08/25 03:07:56;;;;;;;8.18;2.38;;;;;;;22.78;54.23;98345.50;6245300;23;20138;-64
2021/08/25 03:10:21;;;;;;;3.22;2.13;;;;;;;22.39;54.73;98353.66;6245034;23;20058;-65
2021/08/25 03:12:47;;;;;;;3.80;2.90;;;;;;;22.03;55.47;98357.41;6245033;23;20016;-63
2021/08/25 03:15:13;;;;;;;4.15;3.28;;;;;;;21.75;55.71;98355.97;6245758;23;20091;-64
2021/08/25 03:17:39;;;;;;;4.30;2.25;;;;;;;21.60;55.87;98351.59;6245179;23;19999;-65
2021/08/25 03:20:08;;;;;;;2.22;1.73;;;;;;;21.50;55.88;98344.28;6245181;23;20062;-65
2021/08/25 03:22:34;;;;;;;7.50;3.03;;;;;;;21.49;55.67;98351.00;6245018;23;20019;-66
2021/08/25 03:25:00;;;;;;;5.05;1.90;;;;;;;21.72;54.77;98337.06;6244944;23;20080;-65
2021/08/25 03:27:26;;;;;;;2.05;1.85;;;;;;;21.93;54.53;98340.94;6245148;23;20598;-66
2021/08/25 03:29:52;;;;;;;5.20;1.45;;;;;;;21.79;54.59;98329.84;6245058;23;20127;-66
2021/08/25 03:32:17;;;;;;;2.22;1.83;;;;;;;21.68;54.69;98331.28;6218091;23;20107;-65
2021/08/25 03:34:43;;;;;;;2.15;1.25;;;;;;;21.91;53.95;98336.78;6244318;23;20008;-65
2021/08/25 03:37:09;;;;;;;2.90;2.50;;;;;;;21.90;53.99;98327.59;6245102;23;20008;-65
2021/08/25 03:39:35;;;;;;;1.17;1.17;;;;;;;22.17;53.43;98334.97;6244864;23;20044;-65
2021/08/25 03:42:01;;;;;;;0.75;0.65;;;;;;;22.75;51.91;98318.97;6244852;23;20012;-64
2021/08/25 03:44:26;;;;;;;1.63;1.25;;;;;;;23.75;50.11;98321.06;6244972;23;20016;-64
2021/08/25 03:46:52;;;;;;;1.45;1.30;;;;;;;24.65;48.44;98322.03;6245476;23;20310;-64
2021/08/25 03:49:18;;;;;;;4.75;0.82;;;;;;;25.22;47.45;98322.56;6244793;23;20023;-65
2021/08/25 03:51:43;;;;;;;0.80;0.70;;;;;;;25.81;46.35;98315.88;6244747;23;20012;-64
2021/08/25 03:54:09;;;;;;;1.65;1.08;;;;;;;26.27;45.64;98324.28;6245166;23;20348;-67
2021/08/25 03:56:35;;;;;;;0.38;0.38;;;;;;;26.64;45.19;98318.63;6244842;23;20000;-65
2021/08/25 03:59:00;;;;;;;0.55;0.55;;;;;;;27.06;44.84;98318.31;6245040;23;20437;-67
2021/08/25 04:01:26;;;;;;;2.65;0.57;;;;;;;27.20;44.81;98310.28;6245051;23;20113;-65
2021/08/25 04:03:52;;;;;;;1.45;0.60;;;;;;;27.36;45.15;98303.94;6217056;23;20019;-65
2021/08/25 04:06:18;;;;;;;0.75;0.65;;;;;;;27.46;44.95;98309.06;6244923;23;20019;-65
2021/08/25 04:08:43;;;;;;;0.57;0.57;;;;;;;27.49;45.23;98301.84;6244878;23;20008;-66
2021/08/25 04:11:09;;;;;;;10.60;1.98;;;;;;;27.61;45.09;98298.97;6244456;23;20409;-66
2021/08/25 04:13:35;;;;;;;0.90;0.68;;;;;;;28.23;44.16;98292.94;6244773;23;20164;-65
2021/08/25 04:16:01;;;;;;;0.45;0.40;;;;;;;27.93;44.87;98299.84;6243106;23;20016;-65
2021/08/25 04:18:26;;;;;;;0.57;0.57;;;;;;;28.88;43.23;98300.94;6243305;23;20407;-66
2021/08/25 04:20:52;;;;;;;1.58;0.68;;;;;;;29.73;42.12;98296.59;6243342;23;20026;-65
2021/08/25 04:23:18;;;;;;;1.17;0.73;;;;;;;29.89;42.02;98303.00;6243282;23;20109;-65
2021/08/25 04:25:44;;;;;;;3.28;0.98;;;;;;;29.84;42.32;98306.13;6243516;23;20012;-65
2021/08/25 04:28:11;;;;;;;4.38;2.33;;;;;;;30.26;42.01;98301.63;6243639;23;20027;-65
2021/08/25 04:30:37;;;;;;;2.45;0.43;;;;;;;31.11;40.58;98304.16;6243240;23;20078;-65
2021/08/25 04:33:03;;;;;;;0.22;0.22;;;;;;;31.88;39.62;98289.63;6242810;23;20059;-67
2021/08/25 04:35:29;;;;;;;3.85;0.90;;;;;;;32.33;39.09;98293.28;6243304;23;20070;-65
2021/08/25 04:37:55;;;;;;;0.90;0.90;;;;;;;31.95;39.95;98293.34;6243862;23;20012;-66
2021/08/25 04:40:21;;;;;;;0.50;0.50;;;;;;;31.39;41.01;98303.69;6243286;23;20883;-67
2021/08/25 04:42:46;;;;;;;0.70;0.70;;;;;;;30.79;42.18;98289.50;6243185;23;20015;-66
2021/08/25 04:45:13;;;;;;;1.08;1.00;;;;;;;30.33;43.00;98293.22;6243336;23;20449;-66
2021/08/25 04:47:40;;;;;;;0.80;0.80;;;;;;;29.78;43.90;98290.63;6243075;23;20444;-64
2021/08/25 04:50:06;;;;;;;2.25;1.30;;;;;;;29.27;44.89;98280.38;6243172;23;20012;-66
2021/08/25 04:52:31;;;;;;;1.20;0.93;;;;;;;28.80;45.56;98293.50;6243069;23;20012;-65
2021/08/25 04:54:57;;;;;;;6.40;1.63;;;;;;;28.35;46.01;98283.56;6242974;23;20012;-66
2021/08/25 04:57:23;;;;;;;1.05;0.95;;;;;;;28.09;46.49;98280.13;6243201;23;20040;-66
2021/08/25 04:59:48;;;;;;;1.85;1.20;;;;;;;27.88;46.70;98266.25;6242934;23;20008;-66
2021/08/25 05:02:14;;;;;;;2.13;1.92;;;;;;;27.73;46.66;98276.34;6242842;23;20020;-66
2021/08/25 05:04:40;;;;;;;4.25;1.15;;;;;;;27.70;46.86;98277.06;6242351;23;20437;-65
2021/08/25 05:07:06;;;;;;;0.52;0.45;;;;;;;27.68;46.56;98270.97;6243131;23;19996;-65
2021/08/25 05:09:31;;;;;;;2.45;1.23;;;;;;;27.66;46.41;98267.69;6243052;23;20438;-64
2021/08/25 05:11:57;;;;;;;1.40;1.30;;;;;;;27.58;46.48;98266.69;6243015;23;20074;-66
2021/08/25 05:14:23;;;;;;;2.65;1.38;;;;;;;27.49;46.65;98265.19;6244101;23;20012;-67
2021/08/25 05:16:49;;;;;;;1.33;1.23;;;;;;;27.37;46.91;98274.53;6244833;23;20031;-65
2021/08/25 05:19:14;;;;;;;1.80;1.05;;;;;;;27.28;46.89;98267.06;6245206;23;20459;-65
2021/08/25 05:21:40;;;;;;;1.88;1.00;;;;;;;27.23;46.74;98256.03;6245360;23;20456;-65
2021/08/25 05:24:06;;;;;;;4.25;0.93;;;;;;;27.15;46.68;98257.03;6244848;23;20357;-65
2021/08/25 05:26:31;;;;;;;2.22;1.40;;;;;;;27.14;46.85;98261.00;6244805;23;20455;-66
2021/08/25 05:28:57;;;;;;;1.45;0.75;;;;;;;27.16;46.62;98257.81;6244838;23;20020;-65
2021/08/25 05:31:24;;;;;;;2.15;1.95;;;;;;;27.22;46.25;98251.59;6245694;23;20016;-66
2021/08/25 05:33:50;;;;;;;1.45;1.33;;;;;;;27.25;46.38;98250.88;6244265;23;20476;-66
2021/08/25 05:36:15;;;;;;;0.63;0.60;;;;;;;27.23;46.44;98249.56;6244907;23;20007;-66
2021/08/25 05:38:41;;;;;;;1.85;1.25;;;;;;;27.21;46.67;98243.50;6244827;23;20015;-65
2021/08/25 05:41:07;;;;;;;1.75;1.20;;;;;;;27.21;46.15;98244.31;6244707;23;20012;-65
2021/08/25 05:43:33;;;;;;;1.17;1.08;;;;;;;27.21;46.45;98238.66;6244944;23;20027;-64
2021/08/25 05:45:58;;;;;;;1.45;1.35;;;;;;;27.17;46.12;98251.84;6244817;23;20008;-64
2021/08/25 05:48:24;;;;;;;1.50;0.70;;;;;;;27.15;46.32;98242.09;6245070;23;20020;-66
2021/08/25 05:50:50;;;;;;;2.25;1.23;;;;;;;27.10;46.73;98234.72;6218065;23;20043;-65
2021/08/25 05:53:16;;;;;;;0.47;0.47;;;;;;;27.06;46.37;98237.44;6244628;23;20016;-65
2021/08/25 05:55:42;;;;;;;0.98;0.52;;;;;;;27.04;46.77;98238.97;6244222;23;20012;-66
2021/08/25 05:58:08;;;;;;;1.00;0.52;;;;;;;27.12;46.66;98238.00;6242198;23;20436;-65
2021/08/25 06:00:34;;;;;;;0.60;0.57;;;;;;;27.24;46.13;98239.97;6244523;23;20008;-64
2021/08/25 06:03:00;;;;;;;5.07;0.85;;;;;;;27.31;45.95;98240.16;6243897;23;20008;-65
2021/08/25 06:05:26;;;;;;;1.33;1.23;;;;;;;27.36;46.00;98233.47;6243970;23;20016;-65
2021/08/25 06:07:53;;;;;;;1.48;0.73;;;;;;;27.35;46.23;98240.28;6244235;23;20080;-65
2021/08/25 06:10:19;;;;;;;0.60;0.60;;;;;;;27.33;46.12;98236.97;6244458;23;20012;-65
2021/08/25 06:12:45;;;;;;;1.25;1.10;;;;;;;27.36;45.84;98223.00;6244100;23;20095;-65
2021/08/25 06:15:11;;;;;;;0.80;0.80;;;;;;;27.39;45.81;98229.91;6244347;23;20457;-64
2021/08/25 06:17:37;;;;;;;1.33;0.95;;;;;;;27.40;46.08;98220.25;6244240;23;20007;-65
2021/08/25 06:20:04;;;;;;;3.47;1.85;;;;;;;27.49;45.91;98226.56;6244023;23;20008;-65
2021/08/25 06:22:30;;;;;;;1.30;1.20;;;;;;;27.58;45.83;98224.38;6244770;23;20008;-66
2021/08/25 06:24:56;;;;;;;0.75;0.75;;;;;;;27.69;45.40;98218.19;6244149;23;21000;-67
2021/08/25 06:27:24;;;;;;;0.80;0.47;;;;;;;27.77;45.44;98220.84;6244383;23;20407;-66
2021/08/25 06:29:49;;;;;;;1.85;0.82;;;;;;;27.83;45.35;98229.84;6244397;23;20007;-66
2021/08/25 06:32:15;;;;;;;1.55;0.85;;;;;;;28.00;45.28;98227.88;6244273;23;20062;-66
2021/08/25 06:34:41;;;;;;;2.13;0.50;;;;;;;28.24;44.69;98226.81;6243907;23;20012;-66
2021/08/25 06:37:07;;;;;;;1.63;1.23;;;;;;;28.42;44.53;98227.25;6244161;23;20008;-66
2021/08/25 06:39:34;;;;;;;0.65;0.65;;;;;;;28.58;43.96;98216.72;6244266;23;20057;-68
2021/08/25 06:42:00;;;;;;;0.60;0.60;;;;;;;28.73;43.90;98231.19;6244174;23;20066;-65
2021/08/25 06:44:26;;;;;;;0.47;0.47;;;;;;;28.85;43.91;98216.91;6217143;23;20016;-65
2021/08/25 06:46:52;;;;;;;1.02;0.40;;;;;;;28.96;43.57;98214.31;6243824;23;20057;-63
2021/08/25 06:49:17;;;;;;;4.47;0.98;;;;;;;29.03;43.51;98214.44;6244146;23;20083;-63
2021/08/25 06:51:44;;;;;;;1.30;0.40;;;;;;;29.00;43.77;98218.84;6243975;23;20496;-63
2021/08/25 06:54:10;;;;;;;1.17;0.55;;;;;;;29.00;43.71;98212.38;6243912;23;20012;-64
2021/08/25 06:56:36;;;;;;;0.93;0.30;;;;;;;28.98;43.84;98209.09;6243927;23;20008;-64
2021/08/25 06:59:01;;;;;;;0.73;0.73;;;;;;;28.86;44.08;98218.56;6243905;23;20012;-65
2021/08/25 07:01:27;;;;;;;0.40;0.40;;;;;;;28.77;44.29;98215.13;6239794;23;20341;-66
2021/08/25 07:03:53;;;;;;;0.20;0.20;;;;;;;28.66;44.44;98218.53;6237386;23;20023;-67
2021/08/25 07:06:21;;;;;;;0.73;0.45;;;;;;;28.66;44.24;98212.88;6240510;23;20023;-68
2021/08/25 07:08:47;;;;;;;3.40;0.93;;;;;;;28.69;44.09;98208.50;6242324;23;20012;-69
2021/08/25 07:11:13;;;;;;;0.60;0.45;;;;;;;28.73;44.16;98203.75;6243223;23;20019;-66
2021/08/25 07:13:39;;;;;;;1.00;0.63;;;;;;;28.80;43.87;98205.94;6243386;23;20022;-68
2021/08/25 07:16:07;;;;;;;2.35;0.73;;;;;;;28.85;43.67;98194.31;6242970;23;20094;-68
2021/08/25 07:18:33;;;;;;;0.68;0.57;;;;;;;28.90;43.72;98196.84;6243391;23;20437;-67
2021/08/25 07:20:59;;;;;;;1.02;0.63;;;;;;;28.91;43.64;98197.66;6243021;23;20032;-67
2021/08/25 07:23:25;;;;;;;0.65;0.65;;;;;;;28.92;43.42;98197.28;6243072;23;20390;-66
2021/08/25 07:25:51;;;;;;;1.05;0.98;;;;;;;28.97;43.47;98202.63;6216182;23;20019;-64
2021/08/25 07:28:16;;;;;;;0.55;0.20;;;;;;;28.96;43.54;98192.53;6242788;23;20012;-67
2021/08/25 07:30:42;;;;;;;0.75;0.75;;;;;;;28.98;43.41;98187.31;6242925;23;20451;-67
2021/08/25 07:33:15;;;;;;;0.75;0.63;;;;;;;29.07;43.32;98197.56;6242155;23;20022;-66
2021/08/25 07:35:46;;;;;;;0.30;0.30;;;;;;;29.18;42.85;98193.75;6243016;23;20012;-66
2021/08/25 07:38:12;;;;;;;1.13;1.02;;;;;;;29.27;42.85;98187.91;6242746;23;20000;-65
2021/08/25 07:40:38;;;;;;;0.57;0.57;;;;;;;29.30;42.83;98189.97;6215676;23;20023;-65
2021/08/25 07:43:04;;;;;;;1.73;0.95;;;;;;;29.34;42.64;98187.19;6213300;23;20004;-66
2021/08/25 07:45:32;;;;;;;0.40;0.40;;;;;;;29.35;42.72;98184.00;6241650;23;20042;-67
2021/08/25 07:47:58;;;;;;;3.10;1.65;;;;;;;29.38;42.61;98187.28;6241859;23;20020;-66
2021/08/25 07:50:24;;;;;;;0.32;0.32;;;;;;;29.44;42.48;98185.78;6215015;23;20555;-66
2021/08/25 07:52:49;;;;;;;0.82;0.77;;;;;;;29.51;42.35;98189.53;6241877;23;20066;-65
2021/08/25 07:55:15;;;;;;;0.90;0.63;;;;;;;29.51;42.47;98180.25;6241971;23;20103;-66
2021/08/25 07:57:41;;;;;;;0.43;0.40;;;;;;;29.58;42.19;98183.22;6241762;23;20040;-66
2021/08/25 08:00:07;;;;;;;2.22;0.75;;;;;;;29.66;42.10;98178.47;6241643;23;20015;-65
2021/08/25 08:02:36;;;;;;;1.02;0.63;;;;;;;29.63;41.90;98171.56;6241575;23;20020;-65
2021/08/25 08:05:05;;;;;;;1.10;1.00;;;;;;;29.65;41.97;98174.84;6241409;23;20018;-64
2021/08/25 08:07:30;;;;;;;0.35;0.30;;;;;;;29.66;41.98;98179.28;6240198;23;20020;-64
2021/08/25 08:09:56;;;;;;;0.38;0.38;;;;;;;29.66;42.34;98181.31;6234206;23;20300;-62
2021/08/25 08:12:22;;;;;;;0.43;0.40;;;;;;;29.64;41.94;98176.03;6239262;23;20012;-63
2021/08/25 08:14:47;;;;;;;0.82;0.82;;;;;;;29.64;41.94;98178.84;6239144;23;20008;-62
2021/08/25 08:17:15;;;;;;;0.40;0.40;;;;;;;29.66;41.96;98176.47;6240772;23;20464;-62
2021/08/25 08:19:41;;;;;;;1.95;1.10;;;;;;;29.69;41.77;98172.88;6239332;23;20012;-63
2021/08/25 08:22:07;;;;;;;0.65;0.65;;;;;;;29.70;41.76;98173.69;6239277;23;20018;-63
2021/08/25 08:24:33;;;;;;;0.45;0.45;;;;;;;29.74;41.71;98173.75;6240159;23;20012;-64
2021/08/25 08:26:59;;;;;;;0.50;0.38;;;;;;;29.75;41.55;98173.38;6239365;23;20429;-66
2021/08/25 08:29:25;;;;;;;0.22;0.20;;;;;;;29.67;41.73;98161.13;6238398;23;20019;-63
2021/08/25 08:31:51;;;;;;;2.65;0.70;;;;;;;29.68;41.55;98159.09;6239283;23;20008;-64
2021/08/25 08:34:17;;;;;;;0.75;0.63;;;;;;;29.68;41.44;98174.09;6238675;23;20012;-65
2021/08/25 08:36:42;;;;;;;0.45;0.45;;;;;;;29.68;41.44;98167.59;6239076;23;20353;-64
2021/08/25 08:39:08;;;;;;;0.82;0.45;;;;;;;29.68;41.52;98162.78;6239640;23;20015;-63
2021/08/25 08:41:34;;;;;;;0.82;0.75;;;;;;;29.68;41.37;98165.59;6239459;23;20465;-63
2021/08/25 08:44:00;;;;;;;0.45;0.40;;;;;;;29.69;41.28;98158.72;6239945;23;20012;-63
2021/08/25 08:46:25;;;;;;;1.48;1.02;;;;;;;29.71;41.16;98156.34;6239582;23;20012;-64
2021/08/25 08:48:52;;;;;;;0.50;0.50;;;;;;;29.73;41.00;98146.66;6240256;23;20015;-63
2021/08/25 08:51:23;;;;;;;0.25;0.25;;;;;;;29.75;40.99;98139.41;6240861;23;20012;-64
2021/08/25 08:53:51;;;;;;;0.57;0.57;;;;;;;29.75;40.85;98132.97;6240767;23;20015;-63
2021/08/25 08:56:17;;;;;;;2.67;1.05;;;;;;;29.77;40.58;98153.19;6213649;23;20008;-64
2021/08/25 08:58:44;;;;;;;0.82;0.63;;;;;;;29.80;40.56;98138.28;6240264;23;20058;-63
2021/08/25 09:01:10;;;;;;;0.55;0.40;;;;;;;29.82;40.48;98139.56;6213397;23;20024;-64
2021/08/25 09:03:39;;;;;;;0.65;0.65;;;;;;;29.87;40.09;98132.75;6239316;23;20016;-64
2021/08/25 09:06:07;;;;;;;1.20;1.05;;;;;;;29.91;40.11;98127.97;6240414;23;20008;-62
2021/08/25 09:08:56;;;;;;;0.70;0.52;;;;;;;29.97;40.27;98120.78;6241000;23;20100;-62
2021/08/25 09:11:21;;;;;;;4.82;0.98;;;;;;;29.99;39.93;98126.91;6241095;23;20015;-62
2021/08/25 09:13:50;;;;;;;0.55;0.32;;;;;;;30.05;39.69;98118.91;6242393;23;20012;-61
2021/08/25 09:16:31;;;;;;;0.65;0.43;;;;;;;30.12;39.50;98112.50;6242110;23;20721;-61
2021/08/25 09:19:03;;;;;;;1.45;0.98;;;;;;;30.19;39.39;98118.28;6241773;23;20019;-62
2021/08/25 09:21:34;;;;;;;2.17;0.65;;;;;;;30.21;39.35;98111.03;6242600;23;20012;-64
2021/08/25 09:24:01;;;;;;;1.55;0.80;;;;;;;30.21;39.28;98108.19;6241974;23;20016;-63
2021/08/25 09:26:27;;;;;;;0.30;0.30;;;;;;;30.21;39.23;98105.38;6242774;23;20460;-63
2021/08/25 09:28:53;;;;;;;0.85;0.85;;;;;;;30.21;39.09;98107.38;6242095;23;20012;-65
2021/08/25 09:31:19;;;;;;;0.40;0.40;;;;;;;30.22;39.11;98106.97;6242551;23;20070;-65
2021/08/25 09:33:50;;;;;;;0.38;0.38;;;;;;;30.31;38.66;98095.38;6243053;23;20511;-64
2021/08/25 09:36:19;;;;;;;1.33;0.95;;;;;;;30.43;38.72;98091.50;6241318;23;20463;-63
2021/08/25 09:38:58;;;;;;;0.65;0.65;;;;;;;30.50;38.48;98085.13;6241219;23;20016;-63
2021/08/25 09:41:24;;;;;;;5.22;0.90;;;;;;;30.52;38.51;98089.22;6241928;23;20012;-62
2021/08/25 09:43:51;;;;;;;1.25;0.98;;;;;;;30.53;38.30;98081.50;6240883;23;20086;-62
2021/08/25 09:46:21;;;;;;;1.05;0.65;;;;;;;30.56;38.37;98083.56;6240874;23;20020;-61
2021/08/25 09:48:52;;;;;;;0.88;0.35;;;;;;;30.58;38.19;98087.66;6243692;23;20477;-63
2021/08/25 09:51:20;;;;;;;1.23;1.02;;;;;;;30.55;38.28;98082.78;6243133;23;20039;-62
2021/08/25 09:53:48;;;;;;;1.13;0.52;;;;;;;30.53;38.17;98079.50;6243374;23;20035;-64
2021/08/25 09:56:26;;;;;;;0.28;0.28;;;;;;;30.56;38.13;98075.06;6243816;23;20089;-63
2021/08/25 09:58:53;;;;;;;0.40;0.40;;;;;;;30.61;38.04;98077.56;6243191;23;20015;-64
2021/08/25 10:01:20;;;;;;;0.73;0.70;;;;;;;30.66;37.78;98080.06;6242487;23;20024;-63
2021/08/25 10:03:46;;;;;;;1.20;0.55;;;;;;;30.53;38.16;98076.66;6242632;23;20024;-64
2021/08/25 10:06:17;;;;;;;1.13;0.70;;;;;;;30.45;38.16;98071.28;6238154;23;20019;-64
2021/08/25 10:08:43;;;;;;;3.60;0.73;;;;;;;30.48;38.12;98073.38;6241526;23;20008;-65
2021/08/25 10:11:10;;;;;;;1.85;0.77;;;;;;;30.45;38.18;98074.13;6240927;23;20019;-64
2021/08/25 10:13:36;;;;;;;4.13;1.02;;;;;;;30.45;38.37;98069.28;6241219;23;20345;-66
2021/08/25 10:16:01;;;;;;;1.52;0.93;;;;;;;30.47;38.10;98066.06;6240998;23;20008;-70
2021/08/25 10:18:30;;;;;;;1.27;1.17;;;;;;;30.54;37.94;98057.66;6237801;23;20011;-66
2021/08/25 10:20:57;;;;;;;0.55;0.55;;;;;;;30.57;37.61;98051.22;6240833;23;20008;-63
2021/08/25 10:24:08;;;;;;;0.95;0.93;;;;;;;30.65;37.63;98055.75;6240838;23;20338;-63
2021/08/25 10:26:56;;;;;;;0.70;0.70;;;;;;;30.73;37.70;98053.81;6235311;23;20661;-66
2021/08/25 10:29:22;;;;;;;1.10;0.52;;;;;;;30.69;37.72;98055.81;6241315;23;20016;-66
2021/08/25 10:31:53;;;;;;;1.33;0.70;;;;;;;30.67;37.81;98036.34;6240758;23;20168;-67
2021/08/25 10:34:27;;;;;;;1.05;0.93;;;;;;;30.69;37.70;98031.09;6240702;23;20714;-67
2021/08/25 10:37:19;;;;;;;3.72;2.28;;;;;;;30.84;37.53;98036.91;6240949;23;20015;-65
2021/08/25 10:39:45;;;;;;;0.20;0.20;;;;;;;30.97;37.16;98038.25;6241100;23;20023;-62
2021/08/25 10:42:10;;;;;;;0.93;0.73;;;;;;;31.10;36.78;98033.16;6240950;23;20008;-65
2021/08/25 10:44:45;;;;;;;2.42;1.00;;;;;;;31.22;36.69;98026.38;6241140;23;20019;-62
2021/08/25 10:47:13;;;;;;;0.22;0.20;;;;;;;31.28;36.21;98019.13;6240457;23;20349;-62
2021/08/25 10:49:40;;;;;;;1.35;0.52;;;;;;;31.41;35.53;98025.31;6241227;23;20012;-65
2021/08/25 10:52:28;;;;;;;0.30;0.30;;;;;;;31.52;35.58;98014.84;6240110;23;20091;-62
2021/08/25 10:54:55;;;;;;;0.57;0.57;;;;;;;31.60;35.24;98015.75;6240411;23;20012;-64
2021/08/25 10:57:23;;;;;;;1.05;0.50;;;;;;;31.69;34.98;98007.69;6240719;23;20332;-62
2021/08/25 10:59:50;;;;;;;0.50;0.50;;;;;;;31.79;34.43;98014.63;6213700;23;20050;-64
2021/08/25 11:02:16;;;;;;;0.10;0.10;;;;;;;31.84;34.53;98013.44;6240096;23;20085;-64
2021/08/25 11:04:42;;;;;;;0.25;0.25;;;;;;;31.86;34.31;97980.63;6239358;23;20047;-63
2021/08/25 11:07:10;;;;;;;0.10;0.10;;;;;;;31.89;34.08;97994.00;6240267;23;20008;-60
2021/08/25 11:09:41;;;;;;;0.28;0.28;;;;;;;31.90;33.81;98000.50;6240621;23;20345;-63
2021/08/25 11:12:22;;;;;;;0.77;0.60;;;;;;;31.90;33.46;97987.09;6239869;23;20012;-63
2021/08/25 11:14:57;;;;;;;0.30;0.30;;;;;;;31.92;33.43;97986.69;6240666;23;20015;-64
2021/08/25 11:17:23;;;;;;;0.13;0.13;;;;;;;31.92;33.17;97998.06;6240716;23;20023;-63
2021/08/25 11:19:52;;;;;;;0.40;0.40;;;;;;;31.96;33.09;97987.53;6240462;23;20011;-65
2021/08/25 11:22:25;;;;;;;0.52;0.52;;;;;;;31.95;33.09;97985.94;6240515;23;20086;-63
2021/08/25 11:24:55;;;;;;;1.25;0.20;;;;;;;31.89;33.06;97982.66;6240511;23;20111;-62
2021/08/25 11:27:32;;;;;;;1.30;0.47;;;;;;;31.86;33.08;97974.94;6240173;23;20036;-64
2021/08/25 11:30:19;;;;;;;0.22;0.10;;;;;;;31.82;32.86;97973.28;6240097;23;20512;-63
2021/08/25 11:32:59;;;;;;;0.10;0.10;;;;;;;31.76;32.87;97976.50;6239341;23;20012;-62
2021/08/25 11:35:39;;;;;;;0.10;0.10;;;;;;;31.65;32.82;97969.94;6238785;23;20394;-63